createdAt,value
2017-08-24T00:00:18.724Z,91.33
2017-08-24T00:01:18.420Z,91.33
2017-08-24T00:02:18.718Z,91.42
2017-08-24T00:03:18.717Z,91.52
2017-08-24T00:04:18.714Z,91.81
2017-08-24T00:05:18.708Z,91.23
2017-08-24T00:06:18.707Z,91.52
2017-08-24T00:07:18.705Z,91.42
2017-08-24T00:08:18.704Z,91.61
2017-08-24T00:09:18.701Z,92
2017-08-24T00:10:18.398Z,91.9
2017-08-24T00:11:18.693Z,91.71
2017-08-24T00:12:18.693Z,92
2017-08-24T00:13:18.690Z,92
2017-08-24T00:14:18.686Z,91.81
2017-08-24T00:15:18.688Z,92.1
2017-08-24T00:16:18.684Z,92.29
2017-08-24T00:17:18.374Z,92.1
2017-08-24T00:18:18.783Z,91.71
2017-08-24T00:19:18.369Z,92
2017-08-24T00:20:18.366Z,92
2017-08-24T00:21:18.365Z,92.19
2017-08-24T00:22:18.364Z,93.05
2017-08-24T00:23:18.362Z,92
2017-08-24T00:24:18.362Z,92.77
2017-08-24T00:25:18.354Z,92.67
2017-08-24T00:26:18.353Z,92.91
2017-08-24T00:27:18.348Z,92.77
2017-08-24T00:28:18.346Z,92.43
2017-08-24T00:29:18.343Z,92.82
2017-08-24T00:30:18.340Z,92.53
2017-08-24T00:31:18.338Z,92.43
2017-08-24T00:32:18.363Z,92.91
2017-08-24T00:33:18.736Z,92.72
2017-08-24T00:34:18.635Z,92.91
2017-08-24T00:35:18.332Z,92.63
2017-08-24T00:36:18.634Z,92.82
2017-08-24T00:37:18.333Z,93.39
2017-08-24T00:38:18.629Z,92.53
2017-08-24T00:39:18.318Z,93.01
2017-08-24T00:40:18.318Z,93.59
2017-08-24T00:41:18.312Z,93.2
2017-08-24T00:42:18.310Z,93.01
2017-08-24T00:43:18.305Z,93.2
2017-08-24T00:44:18.302Z,93.2
2017-08-24T00:45:18.302Z,93.3
2017-08-24T00:46:18.601Z,93.3
2017-08-24T00:47:18.607Z,93.01
2017-08-24T00:48:18.292Z,93.2
2017-08-24T00:49:18.292Z,93.1
2017-08-24T00:50:18.288Z,93.1
2017-08-24T00:51:18.285Z,93.1
2017-08-24T00:52:18.284Z,93.3
2017-08-24T00:53:18.587Z,93.2
2017-08-24T00:54:18.581Z,93.01
2017-08-24T00:55:18.276Z,93.39
2017-08-24T00:56:18.581Z,93.2
2017-08-24T00:57:18.578Z,93.39
2017-08-24T00:58:18.273Z,93.49
2017-08-24T00:59:18.570Z,93.2
2017-08-24T01:00:18.569Z,93.01
2017-08-24T01:01:18.567Z,92.53
2017-08-24T01:02:18.566Z,93.01
2017-08-24T01:03:18.563Z,93.39
2017-08-24T01:04:18.558Z,93.01
2017-08-24T01:05:18.555Z,92.82
2017-08-24T01:06:18.348Z,92.72
2017-08-24T01:07:18.550Z,92.72
2017-08-24T01:08:18.548Z,92.63
2017-08-24T01:09:18.545Z,92.72
2017-08-24T01:10:18.542Z,92.82
2017-08-24T01:11:18.537Z,92.72
2017-08-24T01:12:18.535Z,92.63
2017-08-24T01:13:18.536Z,92.63
2017-08-24T01:14:18.629Z,92.63
2017-08-24T01:15:18.531Z,92.72
2017-08-24T01:16:18.526Z,92.82
2017-08-24T01:17:18.526Z,93.2
2017-08-24T01:18:18.518Z,93.3
2017-08-24T01:19:18.616Z,93.59
2017-08-24T01:20:18.516Z,93.3
2017-08-24T01:21:18.516Z,93.39
2017-08-24T01:22:18.517Z,93.2
2017-08-24T01:23:18.508Z,93.39
2017-08-24T01:24:18.503Z,93.39
2017-08-24T01:25:18.197Z,93.39
2017-08-24T01:26:18.195Z,92.82
2017-08-24T01:27:18.194Z,92.82
2017-08-24T01:28:18.495Z,92.82
2017-08-24T01:29:18.593Z,92.53
2017-08-24T01:30:18.185Z,92.82
2017-08-24T01:31:18.485Z,92.82
2017-08-24T01:32:18.482Z,92.91
2017-08-24T01:33:18.481Z,93.2
2017-08-24T01:34:18.480Z,93.39
2017-08-24T01:35:18.477Z,93.2
2017-08-24T01:36:18.270Z,93.2
2017-08-24T01:37:18.476Z,93.01
2017-08-24T01:38:18.467Z,93.3
2017-08-24T01:39:18.465Z,93.2
2017-08-24T01:40:18.461Z,93.39
2017-08-24T01:41:18.459Z,93.2
2017-08-24T01:42:18.152Z,92.91
2017-08-24T01:43:18.454Z,93.3
2017-08-24T01:44:18.450Z,93.49
2017-08-24T01:45:18.547Z,93.44
2017-08-24T01:46:18.453Z,93.3
2017-08-24T01:47:18.444Z,93.3
2017-08-24T01:48:18.440Z,93.15
2017-08-24T01:49:18.437Z,93.39
2017-08-24T01:50:18.433Z,92.96
2017-08-24T01:51:18.125Z,92.96
2017-08-24T01:52:18.130Z,93.35
2017-08-24T01:53:18.428Z,92.91
2017-08-24T01:54:18.426Z,93.25
2017-08-24T01:55:18.421Z,93.25
2017-08-24T01:56:18.445Z,93.25
2017-08-24T01:57:18.418Z,92.86
2017-08-24T01:58:18.110Z,93.15
2017-08-24T01:59:18.110Z,93.25
2017-08-24T02:00:18.409Z,93.15
2017-08-24T02:01:18.405Z,93.06
2017-08-24T02:02:18.401Z,93.06
2017-08-24T02:03:18.400Z,92.96
2017-08-24T02:04:18.395Z,92.96
2017-08-24T02:05:18.088Z,93.06
2017-08-24T02:06:18.392Z,93.06
2017-08-24T02:07:18.083Z,93.15
2017-08-24T02:08:18.385Z,93.06
2017-08-24T02:09:18.381Z,93.25
2017-08-24T02:10:18.379Z,93.35
2017-08-24T02:11:18.378Z,94.12
2017-08-24T02:12:18.377Z,93.82
2017-08-24T02:13:18.370Z,94.02
2017-08-24T02:14:18.367Z,93.54
2017-08-24T02:15:18.367Z,93.82
2017-08-24T02:16:18.364Z,93.63
2017-08-24T02:17:18.366Z,93.63
2017-08-24T02:18:18.357Z,93.82
2017-08-24T02:19:18.457Z,93.82
2017-08-24T02:20:18.352Z,93.92
2017-08-24T02:21:18.349Z,93.92
2017-08-24T02:22:18.350Z,94.02
2017-08-24T02:23:18.343Z,93.63
2017-08-24T02:24:18.340Z,93.44
2017-08-24T02:25:18.338Z,93.44
2017-08-24T02:26:18.335Z,93.92
2017-08-24T02:27:18.336Z,94.21
2017-08-24T02:28:18.332Z,94.02
2017-08-24T02:29:18.325Z,93.82
2017-08-24T02:30:18.019Z,94.02
2017-08-24T02:31:18.017Z,94.02
2017-08-24T02:32:18.321Z,93.73
2017-08-24T02:33:18.319Z,93.73
2017-08-24T02:34:18.317Z,93.92
2017-08-24T02:35:18.313Z,93.82
2017-08-24T02:36:18.311Z,93.92
2017-08-24T02:37:18.404Z,93.63
2017-08-24T02:38:18.307Z,93.73
2017-08-24T02:39:18.409Z,93.73
2017-08-24T02:40:18.300Z,93.92
2017-08-24T02:41:17.997Z,93.92
2017-08-24T02:42:18.294Z,93.63
2017-08-24T02:43:17.989Z,93.73
2017-08-24T02:44:18.288Z,93.92
2017-08-24T02:45:18.285Z,93.59
2017-08-24T02:46:18.277Z,93.44
2017-08-24T02:47:18.280Z,93.63
2017-08-24T02:48:18.279Z,93.88
2017-08-24T02:49:18.375Z,94.02
2017-08-24T02:50:18.275Z,94.07
2017-08-24T02:51:18.268Z,93.68
2017-08-24T02:52:18.266Z,94.26
2017-08-24T02:53:18.261Z,94.74
2017-08-24T02:54:18.286Z,94.74
2017-08-24T02:55:18.357Z,94.93
2017-08-24T02:56:18.353Z,94.54
2017-08-24T02:57:18.254Z,94.35
2017-08-24T02:58:18.246Z,94.64
2017-08-24T02:59:18.248Z,94.54
2017-08-24T03:00:18.243Z,94.54
2017-08-24T03:01:18.241Z,94.45
2017-08-24T03:02:17.932Z,94.45
2017-08-24T03:03:18.235Z,94.35
2017-08-24T03:04:18.232Z,94.79
2017-08-24T03:05:18.228Z,94.69
2017-08-24T03:06:18.226Z,94.45
2017-08-24T03:07:18.226Z,94.79
2017-08-24T03:08:17.915Z,94.45
2017-08-24T03:09:18.314Z,94.45
2017-08-24T03:10:18.216Z,94.64
2017-08-24T03:11:18.212Z,94.74
2017-08-24T03:12:18.212Z,94.84
2017-08-24T03:13:18.209Z,94.4
2017-08-24T03:14:17.898Z,93.68
2017-08-24T03:15:17.893Z,93.73
2017-08-24T03:16:18.203Z,94.12
2017-08-24T03:17:18.194Z,94.07
2017-08-24T03:18:17.886Z,94.02
2017-08-24T03:19:18.187Z,94.12
2017-08-24T03:20:18.186Z,94.12
2017-08-24T03:21:18.182Z,93.88
2017-08-24T03:22:18.181Z,94.12
2017-08-24T03:23:18.183Z,94.07
2017-08-24T03:24:18.176Z,94.12
2017-08-24T03:25:18.170Z,93.97
2017-08-24T03:26:18.168Z,94.02
2017-08-24T03:27:18.172Z,94.26
2017-08-24T03:28:18.164Z,93.88
2017-08-24T03:29:18.159Z,94.26
2017-08-24T03:30:18.166Z,93.97
2017-08-24T03:31:18.153Z,93.88
2017-08-24T03:32:17.847Z,93.88
2017-08-24T03:33:18.149Z,93.88
2017-08-24T03:34:18.148Z,94.02
2017-08-24T03:35:18.144Z,93.88
2017-08-24T03:36:18.141Z,93.88
2017-08-24T03:37:18.137Z,94.07
2017-08-24T03:38:18.138Z,94.17
2017-08-24T03:39:18.135Z,93.97
2017-08-24T03:40:18.130Z,93.97
2017-08-24T03:41:17.923Z,94.07
2017-08-24T03:42:18.124Z,93.78
2017-08-24T03:43:18.222Z,94.35
2017-08-24T03:44:17.813Z,94.84
2017-08-24T03:45:18.117Z,94.64
2017-08-24T03:46:18.115Z,94.74
2017-08-24T03:47:17.804Z,94.54
2017-08-24T03:48:18.206Z,94.54
2017-08-24T03:49:18.105Z,94.54
2017-08-24T03:50:18.103Z,94.54
2017-08-24T03:51:18.098Z,94.45
2017-08-24T03:52:18.094Z,94.54
2017-08-24T03:53:18.092Z,94.64
2017-08-24T03:54:17.796Z,94.54
2017-08-24T03:55:18.086Z,95.03
2017-08-24T03:56:18.084Z,95.03
2017-08-24T03:57:18.080Z,95.21
2017-08-24T03:58:18.085Z,95.21
2017-08-24T03:59:18.074Z,95.31
2017-08-24T04:00:18.074Z,95.31
2017-08-24T04:01:18.074Z,95.12
2017-08-24T04:02:18.067Z,95.03
2017-08-24T04:03:18.064Z,95.03
2017-08-24T04:04:18.063Z,95.03
2017-08-24T04:05:18.056Z,95.12
2017-08-24T04:06:18.056Z,94.74
2017-08-24T04:07:18.051Z,95.07
2017-08-24T04:08:18.050Z,95.07
2017-08-24T04:09:18.046Z,94.59
2017-08-24T04:10:17.737Z,95.56
2017-08-24T04:11:18.141Z,95.75
2017-08-24T04:12:18.040Z,95.17
2017-08-24T04:13:18.036Z,95.36
2017-08-24T04:14:18.035Z,95.51
2017-08-24T04:15:18.032Z,95.65
2017-08-24T04:16:17.723Z,95.6
2017-08-24T04:17:18.022Z,95.79
2017-08-24T04:18:18.023Z,95.79
2017-08-24T04:19:18.019Z,95.98
2017-08-24T04:20:18.012Z,95.6
2017-08-24T04:21:18.009Z,95.6
2017-08-24T04:22:18.009Z,95.36
2017-08-24T04:23:18.005Z,95.41
2017-08-24T04:24:18.003Z,95.7
2017-08-24T04:25:18.002Z,96.18
2017-08-24T04:26:17.998Z,96.13
2017-08-24T04:27:17.690Z,96.08
2017-08-24T04:28:17.989Z,95.94
2017-08-24T04:29:17.990Z,96.08
2017-08-24T04:30:17.989Z,95.89
2017-08-24T04:31:17.984Z,96.08
2017-08-24T04:32:17.979Z,95.75
2017-08-24T04:33:17.978Z,96.08
2017-08-24T04:34:18.074Z,95.89
2017-08-24T04:35:17.969Z,95.89
2017-08-24T04:36:17.969Z,95.98
2017-08-24T04:37:17.976Z,95.89
2017-08-24T04:38:17.963Z,95.89
2017-08-24T04:39:17.959Z,96.27
2017-08-24T04:40:17.965Z,96.08
2017-08-24T04:41:17.953Z,96.08
2017-08-24T04:42:17.953Z,96.18
2017-08-24T04:43:17.950Z,96.27
2017-08-24T04:44:17.944Z,95.98
2017-08-24T04:45:17.939Z,96.08
2017-08-24T04:46:18.038Z,95.98
2017-08-24T04:47:17.936Z,95.89
2017-08-24T04:48:17.936Z,95.89
2017-08-24T04:49:17.931Z,95.98
2017-08-24T04:50:17.929Z,96.18
2017-08-24T04:51:17.619Z,95.98
2017-08-24T04:52:17.924Z,96.18
2017-08-24T04:53:17.919Z,95.98
2017-08-24T04:54:18.016Z,95.98
2017-08-24T04:55:17.914Z,96.18
2017-08-24T04:56:17.912Z,96.18
2017-08-24T04:57:18.006Z,95.65
2017-08-24T04:58:17.903Z,95.84
2017-08-24T04:59:17.902Z,95.65
2017-08-24T05:00:17.898Z,94.98
2017-08-24T05:01:17.897Z,95.07
2017-08-24T05:02:17.897Z,95.31
2017-08-24T05:03:17.888Z,95.21
2017-08-24T05:04:17.894Z,94.54
2017-08-24T05:05:17.883Z,94.83
2017-08-24T05:06:17.880Z,94.31
2017-08-24T05:07:17.878Z,94.11
2017-08-24T05:08:17.874Z,94.11
2017-08-24T05:09:17.872Z,93.44
2017-08-24T05:10:17.873Z,93.63
2017-08-24T05:11:17.867Z,92
2017-08-24T05:12:17.862Z,92
2017-08-24T05:13:17.862Z,91.71
2017-08-24T05:14:17.862Z,91.33
2017-08-24T05:15:17.855Z,90.75
2017-08-24T05:16:17.855Z,90.84
2017-08-24T05:17:17.858Z,91.61
2017-08-24T05:18:17.949Z,91.23
2017-08-24T05:19:17.540Z,91.61
2017-08-24T05:20:17.847Z,90.75
2017-08-24T05:21:17.839Z,91.23
2017-08-24T05:22:17.838Z,90.51
2017-08-24T05:23:17.840Z,90.51
2017-08-24T05:24:17.836Z,90.17
2017-08-24T05:25:17.832Z,89.4
2017-08-24T05:26:17.829Z,88.87
2017-08-24T05:27:17.825Z,88.19
2017-08-24T05:28:17.822Z,87.46
2017-08-24T05:29:17.526Z,86.69
2017-08-24T05:30:17.509Z,86.74
2017-08-24T05:31:17.814Z,85.97
2017-08-24T05:32:17.812Z,85.24
2017-08-24T05:33:17.809Z,84.95
2017-08-24T05:34:17.808Z,84.61
2017-08-24T05:35:17.805Z,83.36
2017-08-24T05:36:17.804Z,82.97
2017-08-24T05:37:17.801Z,81.76
2017-08-24T05:38:17.798Z,82.09
2017-08-24T05:39:17.798Z,81.51
2017-08-24T05:40:17.793Z,80.49
2017-08-24T05:41:17.792Z,79.43
2017-08-24T05:42:17.787Z,77.92
2017-08-24T05:43:17.787Z,77.25
2017-08-24T05:44:17.783Z,76.57
2017-08-24T05:45:17.779Z,76.57
2017-08-24T05:46:17.777Z,75.89
2017-08-24T05:47:17.777Z,75.06
2017-08-24T05:48:17.877Z,74.1
2017-08-24T05:49:17.469Z,74.58
2017-08-24T05:50:17.773Z,73.8
2017-08-24T05:51:17.770Z,73.65
2017-08-24T05:52:17.769Z,73.2
2017-08-24T05:53:17.766Z,72.33
2017-08-24T05:54:17.765Z,72.17
2017-08-24T05:55:17.763Z,71.88
2017-08-24T05:56:17.763Z,71.01
2017-08-24T05:57:17.457Z,70.66
2017-08-24T05:58:17.759Z,69.79
2017-08-24T05:59:17.759Z,69.24
2017-08-24T06:00:17.754Z,68.37
2017-08-24T06:01:17.757Z,68.21
2017-08-24T06:02:17.755Z,68.12
2017-08-24T06:03:17.753Z,66.89
2017-08-24T06:04:17.549Z,66.3
2017-08-24T06:05:17.751Z,65.82
2017-08-24T06:06:17.750Z,65.43
2017-08-24T06:07:17.750Z,65.66
2017-08-24T06:08:17.748Z,64.78
2017-08-24T06:09:17.746Z,64.33
2017-08-24T06:10:17.846Z,63.36
2017-08-24T06:11:17.846Z,63.17
2017-08-24T06:12:17.744Z,62.81
2017-08-24T06:13:17.742Z,62.52
2017-08-24T06:14:17.748Z,62.42
2017-08-24T06:15:17.841Z,62.07
2017-08-24T06:16:17.841Z,61.97
2017-08-24T06:17:17.437Z,61.32
2017-08-24T06:18:17.737Z,60.93
2017-08-24T06:19:17.741Z,60.44
2017-08-24T06:20:17.737Z,59.5
2017-08-24T06:21:17.939Z,59.14
2017-08-24T06:22:17.739Z,58.75
2017-08-24T06:23:17.743Z,58.65
2017-08-24T06:24:17.739Z,57.51
2017-08-24T06:25:17.740Z,57.03
2017-08-24T06:26:17.739Z,55.99
2017-08-24T06:27:17.736Z,55.69
2017-08-24T06:28:17.742Z,54.65
2017-08-24T06:29:17.746Z,54.16
2017-08-24T06:30:17.446Z,53.58
2017-08-24T06:31:17.749Z,53.41
2017-08-24T06:32:17.751Z,52.92
2017-08-24T06:33:17.747Z,52.07
2017-08-24T06:34:17.744Z,51.29
2017-08-24T06:35:17.746Z,51.12
2017-08-24T06:36:17.750Z,51.21
2017-08-24T06:37:17.745Z,50.24
2017-08-24T06:38:17.749Z,49.49
2017-08-24T06:39:17.747Z,49.39
2017-08-24T06:40:17.846Z,48.8
2017-08-24T06:41:17.746Z,48.34
2017-08-24T06:42:17.846Z,47.95
2017-08-24T06:43:17.746Z,47.28
2017-08-24T06:44:17.745Z,46.7
2017-08-24T06:45:17.745Z,46.8
2017-08-24T06:46:17.749Z,45.92
2017-08-24T06:47:17.847Z,45.75
2017-08-24T06:48:17.750Z,45.65
2017-08-24T06:49:17.748Z,45.67
2017-08-24T06:50:17.748Z,45.18
2017-08-24T06:51:17.745Z,45.28
2017-08-24T06:52:17.756Z,44.52
2017-08-24T06:53:17.755Z,44.71
2017-08-24T06:54:17.749Z,44.32
2017-08-24T06:55:17.748Z,43.44
2017-08-24T06:56:17.749Z,43.93
2017-08-24T06:57:17.748Z,43.24
2017-08-24T06:58:17.748Z,43.15
2017-08-24T06:59:17.754Z,43.54
2017-08-24T07:00:17.748Z,42.76
2017-08-24T07:01:17.749Z,42.58
2017-08-24T07:02:17.746Z,42.38
2017-08-24T07:03:17.753Z,42.19
2017-08-24T07:04:17.746Z,41.92
2017-08-24T07:05:17.745Z,41.82
2017-08-24T07:06:17.746Z,41.62
2017-08-24T07:07:17.756Z,41.13
2017-08-24T07:08:17.750Z,41.15
2017-08-24T07:09:17.747Z,40.66
2017-08-24T07:10:17.745Z,40.66
2017-08-24T07:11:17.746Z,40.17
2017-08-24T07:12:17.747Z,39.98
2017-08-24T07:13:17.748Z,40.17
2017-08-24T07:14:17.757Z,40.06
2017-08-24T07:15:17.748Z,40.16
2017-08-24T07:16:17.752Z,39.88
2017-08-24T07:17:17.847Z,39.98
2017-08-24T07:18:17.747Z,40
2017-08-24T07:19:17.750Z,39.41
2017-08-24T07:20:17.745Z,39.11
2017-08-24T07:21:17.542Z,38.82
2017-08-24T07:22:17.544Z,38.74
2017-08-24T07:23:17.747Z,38.15
2017-08-24T07:24:17.753Z,37.68
2017-08-24T07:25:17.752Z,37.68
2017-08-24T07:26:17.851Z,37.48
2017-08-24T07:27:17.748Z,38.17
2017-08-24T07:28:17.746Z,37.6
2017-08-24T07:29:17.745Z,37.13
2017-08-24T07:30:17.747Z,37.03
2017-08-24T07:31:17.749Z,36.63
2017-08-24T07:32:17.748Z,36.34
2017-08-24T07:33:17.748Z,35.95
2017-08-24T07:34:17.748Z,36.34
2017-08-24T07:35:17.746Z,36.13
2017-08-24T07:36:17.749Z,36.32
2017-08-24T07:37:17.746Z,36.22
2017-08-24T07:38:17.745Z,36.03
2017-08-24T07:39:17.848Z,35.85
2017-08-24T07:40:17.746Z,35.26
2017-08-24T07:41:17.441Z,35.18
2017-08-24T07:42:17.747Z,35.47
2017-08-24T07:43:17.748Z,35.28
2017-08-24T07:44:17.746Z,35.18
2017-08-24T07:45:17.742Z,35.08
2017-08-24T07:46:17.742Z,34.78
2017-08-24T07:47:17.944Z,34.31
2017-08-24T07:48:17.744Z,34.53
2017-08-24T07:49:17.746Z,33.64
2017-08-24T07:50:17.741Z,33.46
2017-08-24T07:51:17.750Z,33.46
2017-08-24T07:52:17.740Z,34.44
2017-08-24T07:53:17.841Z,34.53
2017-08-24T07:54:17.745Z,34.8
2017-08-24T07:55:17.739Z,35.38
2017-08-24T07:56:17.837Z,35.47
2017-08-24T07:57:17.738Z,36.15
2017-08-24T07:58:17.737Z,36.99
2017-08-24T07:59:17.734Z,38.04
2017-08-24T08:00:17.737Z,39.07
2017-08-24T08:01:17.836Z,39.84
2017-08-24T08:02:17.735Z,40.7
2017-08-24T08:03:17.735Z,41.39
2017-08-24T08:04:17.730Z,41.07
2017-08-24T08:05:17.732Z,40.8
2017-08-24T08:06:17.729Z,40.7
2017-08-24T08:07:17.736Z,40.23
2017-08-24T08:08:17.730Z,39.86
2017-08-24T08:09:17.727Z,39.27
2017-08-24T08:10:17.728Z,39
2017-08-24T08:11:17.729Z,38.72
2017-08-24T08:12:17.727Z,38.62
2017-08-24T08:13:17.724Z,37.76
2017-08-24T08:14:17.723Z,37.48
2017-08-24T08:15:17.725Z,37.09
2017-08-24T08:16:17.725Z,36.91
2017-08-24T08:17:17.723Z,36.91
2017-08-24T08:18:17.722Z,36.91
2017-08-24T08:19:17.722Z,36.91
2017-08-24T08:20:17.719Z,37.11
2017-08-24T08:21:17.719Z,37.68
2017-08-24T08:22:17.720Z,38.74
2017-08-24T08:23:17.718Z,40
2017-08-24T08:24:17.816Z,40.64
2017-08-24T08:25:17.405Z,41.88
2017-08-24T08:26:17.717Z,43.3
2017-08-24T08:27:17.719Z,44.06
2017-08-24T08:28:17.711Z,45.12
2017-08-24T08:29:17.710Z,45.56
2017-08-24T08:30:17.708Z,46.31
2017-08-24T08:31:17.705Z,47.17
2017-08-24T08:32:17.708Z,48.14
2017-08-24T08:33:17.704Z,48.32
2017-08-24T08:34:17.805Z,49.07
2017-08-24T08:35:17.703Z,49.95
2017-08-24T08:36:17.706Z,50.31
2017-08-24T08:37:17.698Z,51.07
2017-08-24T08:38:17.700Z,51.75
2017-08-24T08:39:17.697Z,52.31
2017-08-24T08:40:17.695Z,52.4
2017-08-24T08:41:17.695Z,53.06
2017-08-24T08:42:17.702Z,53.06
2017-08-24T08:43:17.792Z,53.16
2017-08-24T08:44:17.690Z,53.35
2017-08-24T08:45:17.474Z,53.06
2017-08-24T08:46:17.689Z,52.59
2017-08-24T08:47:17.685Z,53.28
2017-08-24T08:48:17.373Z,53.18
2017-08-24T08:49:17.687Z,53.83
2017-08-24T08:50:17.681Z,53.64
2017-08-24T08:51:17.680Z,54.32
2017-08-24T08:52:17.364Z,54.8
2017-08-24T08:53:17.365Z,55
2017-08-24T08:54:17.674Z,54.97
2017-08-24T08:55:17.360Z,55.27
2017-08-24T08:56:17.362Z,54.97
2017-08-24T08:57:17.672Z,55.27
2017-08-24T08:58:17.673Z,54.9
2017-08-24T08:59:17.357Z,54.32
2017-08-24T09:00:17.672Z,54.8
2017-08-24T09:01:17.356Z,54.9
2017-08-24T09:02:17.353Z,54.61
2017-08-24T09:03:17.669Z,54.71
2017-08-24T09:04:17.765Z,54.15
2017-08-24T09:05:17.350Z,54.54
2017-08-24T09:06:17.349Z,54.44
2017-08-24T09:07:17.760Z,54.15
2017-08-24T09:08:17.659Z,54.05
2017-08-24T09:09:17.347Z,54.25
2017-08-24T09:10:17.343Z,53.47
2017-08-24T09:11:17.657Z,53.38
2017-08-24T09:12:17.657Z,54.05
2017-08-24T09:13:17.654Z,54.15
2017-08-24T09:14:17.654Z,54.15
2017-08-24T09:15:17.654Z,53.38
2017-08-24T09:16:17.651Z,53.67
2017-08-24T09:17:17.653Z,53.77
2017-08-24T09:18:17.658Z,54.15
2017-08-24T09:19:17.332Z,53.93
2017-08-24T09:20:17.648Z,54.32
2017-08-24T09:21:17.428Z,55.1
2017-08-24T09:22:17.329Z,55.68
2017-08-24T09:23:17.329Z,55.49
2017-08-24T09:24:17.645Z,55.29
2017-08-24T09:25:17.325Z,55.46
2017-08-24T09:26:17.325Z,55.55
2017-08-24T09:27:17.639Z,55.36
2017-08-24T09:28:17.636Z,55.65
2017-08-24T09:29:17.323Z,55.55
2017-08-24T09:30:17.635Z,55.27
2017-08-24T09:31:17.631Z,55.46
2017-08-24T09:32:17.317Z,56.34
2017-08-24T09:33:17.628Z,56.92
2017-08-24T09:34:17.314Z,56.62
2017-08-24T09:35:17.316Z,56.7
2017-08-24T09:36:17.313Z,56.89
2017-08-24T09:37:17.626Z,56.98
2017-08-24T09:38:17.626Z,57.18
2017-08-24T09:39:17.622Z,57.28
2017-08-24T09:40:17.624Z,57.28
2017-08-24T09:41:17.627Z,57.5
2017-08-24T09:42:17.619Z,57.18
2017-08-24T09:43:17.621Z,57.4
2017-08-24T09:44:17.301Z,57.67
2017-08-24T09:45:17.616Z,57.28
2017-08-24T09:46:17.619Z,57.57
2017-08-24T09:47:17.613Z,58.22
2017-08-24T09:48:17.624Z,58.8
2017-08-24T09:49:17.297Z,58.12
2017-08-24T09:50:17.293Z,58.61
2017-08-24T09:51:17.606Z,58.12
2017-08-24T09:52:17.294Z,58.15
2017-08-24T09:53:17.609Z,57.96
2017-08-24T09:54:17.602Z,58.15
2017-08-24T09:55:17.603Z,57.37
2017-08-24T09:56:17.602Z,56.89
2017-08-24T09:57:17.289Z,56.98
2017-08-24T09:58:17.599Z,57.08
2017-08-24T09:59:17.597Z,56.89
2017-08-24T10:00:17.284Z,56.7
2017-08-24T10:01:17.596Z,56.89
2017-08-24T10:02:17.598Z,56.89
2017-08-24T10:03:17.591Z,56.6
2017-08-24T10:04:17.595Z,56.5
2017-08-24T10:05:17.586Z,56.11
2017-08-24T10:06:17.689Z,55.94
2017-08-24T10:07:17.273Z,55.85
2017-08-24T10:08:17.582Z,55.85
2017-08-24T10:09:17.582Z,55.85
2017-08-24T10:10:17.684Z,56.21
2017-08-24T10:11:17.584Z,56.04
2017-08-24T10:12:17.576Z,56.14
2017-08-24T10:13:17.262Z,55.75
2017-08-24T10:14:17.264Z,56.04
2017-08-24T10:15:17.261Z,55.75
2017-08-24T10:16:17.574Z,56.14
2017-08-24T10:17:17.577Z,55.75
2017-08-24T10:18:17.256Z,55.17
2017-08-24T10:19:17.577Z,55.27
2017-08-24T10:20:17.574Z,55.27
2017-08-24T10:21:17.564Z,55.27
2017-08-24T10:22:17.574Z,55.55
2017-08-24T10:23:17.250Z,55.53
2017-08-24T10:24:17.561Z,55.94
2017-08-24T10:25:17.248Z,55.85
2017-08-24T10:26:17.560Z,56.24
2017-08-24T10:27:17.245Z,55.46
2017-08-24T10:28:17.343Z,55.17
2017-08-24T10:29:17.626Z,55.75
2017-08-24T10:30:17.655Z,55.65
2017-08-24T10:31:17.633Z,55.27
2017-08-24T10:32:17.553Z,55.27
2017-08-24T10:33:17.551Z,55.07
2017-08-24T10:34:17.548Z,54.58
2017-08-24T10:35:17.548Z,54.2
2017-08-24T10:36:17.567Z,54.1
2017-08-24T10:37:17.230Z,54.68
2017-08-24T10:38:17.231Z,54.49
2017-08-24T10:39:17.229Z,54.49
2017-08-24T10:40:17.544Z,54.29
2017-08-24T10:41:17.227Z,54.88
2017-08-24T10:42:17.542Z,54.49
2017-08-24T10:43:17.537Z,54.88
2017-08-24T10:44:17.223Z,54.78
2017-08-24T10:45:17.224Z,54.78
2017-08-24T10:46:17.535Z,54.29
2017-08-24T10:47:17.532Z,54.88
2017-08-24T10:48:17.532Z,54.29
2017-08-24T10:49:17.635Z,54.97
2017-08-24T10:50:17.215Z,54.78
2017-08-24T10:51:17.525Z,55.07
2017-08-24T10:52:17.523Z,54.68
2017-08-24T10:53:17.209Z,54.58
2017-08-24T10:54:17.525Z,54.88
2017-08-24T10:55:17.520Z,54.68
2017-08-24T10:56:17.206Z,54.2
2017-08-24T10:57:17.519Z,54.58
2017-08-24T10:58:17.518Z,54.88
2017-08-24T10:59:17.515Z,55.27
2017-08-24T11:00:17.512Z,54.88
2017-08-24T11:01:17.228Z,54.1
2017-08-24T11:02:17.513Z,53.83
2017-08-24T11:03:17.196Z,53.35
2017-08-24T11:04:17.509Z,53.54
2017-08-24T11:05:17.193Z,53.45
2017-08-24T11:06:17.193Z,53.45
2017-08-24T11:07:17.505Z,52.5
2017-08-24T11:08:17.509Z,52.19
2017-08-24T11:09:17.289Z,51.6
2017-08-24T11:10:17.185Z,52.19
2017-08-24T11:11:17.288Z,52.19
2017-08-24T11:12:17.498Z,51.99
2017-08-24T11:13:17.182Z,52.09
2017-08-24T11:14:17.206Z,51.99
2017-08-24T11:15:17.493Z,52.19
2017-08-24T11:16:17.178Z,52.19
2017-08-24T11:17:17.491Z,52.28
2017-08-24T11:18:17.489Z,52.74
2017-08-24T11:19:17.176Z,52.55
2017-08-24T11:20:17.174Z,52.64
2017-08-24T11:21:17.174Z,52.15
2017-08-24T11:22:17.485Z,51.5
2017-08-24T11:23:17.168Z,50.99
2017-08-24T11:24:17.168Z,50.31
2017-08-24T11:25:17.480Z,51.09
2017-08-24T11:26:17.487Z,51.28
2017-08-24T11:27:17.163Z,51.18
2017-08-24T11:28:17.163Z,52.15
2017-08-24T11:29:17.160Z,52.25
2017-08-24T11:30:17.159Z,52.06
2017-08-24T11:31:17.159Z,51.67
2017-08-24T11:32:17.472Z,51.97
2017-08-24T11:33:17.472Z,51.87
2017-08-24T11:34:17.467Z,52.45
2017-08-24T11:35:17.471Z,52.94
2017-08-24T11:36:17.154Z,52.64
2017-08-24T11:37:17.151Z,53.32
2017-08-24T11:38:17.462Z,53.32
2017-08-24T11:39:17.459Z,53.03
2017-08-24T11:40:17.463Z,52.84
2017-08-24T11:41:17.458Z,52.84
2017-08-24T11:42:17.145Z,52.64
2017-08-24T11:43:17.143Z,52.45
2017-08-24T11:44:17.141Z,52.74
2017-08-24T11:45:17.240Z,53.32
2017-08-24T11:46:17.178Z,52.47
2017-08-24T11:47:17.138Z,52.45
2017-08-24T11:48:17.562Z,51.48
2017-08-24T11:49:17.448Z,51.67
2017-08-24T11:50:17.449Z,51.18
2017-08-24T11:51:17.444Z,51.18
2017-08-24T11:52:17.132Z,51.28
2017-08-24T11:53:17.131Z,51.57
2017-08-24T11:54:17.129Z,51.38
2017-08-24T11:55:17.125Z,51.09
2017-08-24T11:56:17.437Z,51.28
2017-08-24T11:57:17.147Z,50.89
2017-08-24T11:58:17.124Z,50.63
2017-08-24T11:59:17.438Z,50.31
2017-08-24T12:00:17.118Z,50.34
2017-08-24T12:01:17.118Z,50.53
2017-08-24T12:02:17.116Z,50.73
2017-08-24T12:03:17.429Z,50.43
2017-08-24T12:04:17.116Z,50.43
2017-08-24T12:05:17.112Z,50.14
2017-08-24T12:06:17.110Z,50.34
2017-08-24T12:07:17.423Z,50.43
2017-08-24T12:08:17.107Z,50.34
2017-08-24T12:09:17.424Z,50.24
2017-08-24T12:10:17.107Z,49.95
2017-08-24T12:11:17.426Z,48.49
2017-08-24T12:12:17.421Z,49.05
2017-08-24T12:13:17.418Z,49.24
2017-08-24T12:14:17.413Z,49.73
2017-08-24T12:15:17.416Z,49.73
2017-08-24T12:16:17.514Z,48.66
2017-08-24T12:17:17.098Z,49.24
2017-08-24T12:18:17.094Z,48.95
2017-08-24T12:19:17.193Z,48.75
2017-08-24T12:20:17.094Z,48.95
2017-08-24T12:21:17.092Z,48.85
2017-08-24T12:22:17.409Z,48.75
2017-08-24T12:23:17.401Z,48.47
2017-08-24T12:24:17.088Z,48.27
2017-08-24T12:25:17.086Z,48.57
2017-08-24T12:26:17.083Z,48.47
2017-08-24T12:27:17.082Z,48.85
2017-08-24T12:28:17.398Z,48.95
2017-08-24T12:29:17.393Z,48.95
2017-08-24T12:30:17.395Z,48.85
2017-08-24T12:31:17.078Z,48.47
2017-08-24T12:32:17.075Z,48.85
2017-08-24T12:33:17.394Z,49.17
2017-08-24T12:34:17.076Z,48.97
2017-08-24T12:35:17.075Z,48.78
2017-08-24T12:36:17.070Z,48.88
2017-08-24T12:37:17.071Z,48.3
2017-08-24T12:38:17.073Z,47.81
2017-08-24T12:39:17.068Z,47.81
2017-08-24T12:40:17.380Z,47.61
2017-08-24T12:41:17.477Z,47.13
2017-08-24T12:42:17.064Z,47.91
2017-08-24T12:43:17.374Z,48.1
2017-08-24T12:44:17.060Z,47.42
2017-08-24T12:45:17.059Z,48.39
2017-08-24T12:46:17.368Z,48.3
2017-08-24T12:47:17.056Z,48.78
2017-08-24T12:48:17.053Z,48.68
2017-08-24T12:49:17.363Z,48.97
2017-08-24T12:50:17.055Z,48.97
2017-08-24T12:51:17.155Z,47.71
2017-08-24T12:52:17.365Z,45.57
2017-08-24T12:53:17.150Z,44.99
2017-08-24T12:54:17.051Z,45.28
2017-08-24T12:55:17.052Z,44.89
2017-08-24T12:56:17.045Z,45.09